Terminal Aerodrome Forecast
Issued by NWS

Home | Current Version | Previous Version | Graphics & Text | Print | Product List | Glossary On
Versions: 1 2 3 4 5 6 7 8 9 10 11 12 13 14 15 16 17 18
000
FTUS43 KMPX 281737
TAFRWF
TAF
KRWF 281737Z 2818/2918 19018G26KT P6SM SCT060 BKN250
     FM290100 18011KT P6SM SCT100 BKN250
     FM290800 18004KT P6SM SCT070 BKN200
     FM291400 31008KT 4SM -TSRA BR OVC023CB=

USA.gov is the U.S. government's official web portal to all federal, state and local government web resources and services.